sensor_id;sensor_type;location;lat;lon;timestamp;P1;durP1;ratioP1;P2;durP2;ratioP2
59970;SDS011;45825;45.434;9.116;2024-02-26T00:02:17;11.35;;;8.15;;
59970;SDS011;45825;45.434;9.116;2024-02-26T00:04:43;11.77;;;8.20;;
59970;SDS011;45825;45.434;9.116;2024-02-26T00:07:08;10.00;;;6.78;;
59970;SDS011;45825;45.434;9.116;2024-02-26T00:09:33;10.23;;;7.25;;
59970;SDS011;45825;45.434;9.116;2024-02-26T00:12:04;9.25;;;6.28;;
59970;SDS011;45825;45.434;9.116;2024-02-26T00:14:30;10.15;;;6.22;;
59970;SDS011;45825;45.434;9.116;2024-02-26T00:16:56;9.50;;;5.72;;
59970;SDS011;45825;45.434;9.116;2024-02-26T00:19:21;9.63;;;5.57;;
59970;SDS011;45825;45.434;9.116;2024-02-26T00:21:47;7.57;;;4.97;;
59970;SDS011;45825;45.434;9.116;2024-02-26T00:24:13;8.32;;;5.20;;
59970;SDS011;45825;45.434;9.116;2024-02-26T00:26:39;8.95;;;5.13;;
59970;SDS011;45825;45.434;9.116;2024-02-26T00:29:04;8.80;;;4.55;;
59970;SDS011;45825;45.434;9.116;2024-02-26T00:31:29;8.15;;;4.50;;
59970;SDS011;45825;45.434;9.116;2024-02-26T00:33:55;9.63;;;4.38;;
59970;SDS011;45825;45.434;9.116;2024-02-26T00:36:20;7.47;;;4.25;;
59970;SDS011;45825;45.434;9.116;2024-02-26T00:38:45;6.90;;;4.32;;
59970;SDS011;45825;45.434;9.116;2024-02-26T00:41:15;7.28;;;4.00;;
59970;SDS011;45825;45.434;9.116;2024-02-26T00:43:42;8.10;;;3.80;;
59970;SDS011;45825;45.434;9.116;2024-02-26T00:46:08;6.57;;;3.22;;
59970;SDS011;45825;45.434;9.116;2024-02-26T00:48:33;6.07;;;3.38;;
59970;SDS011;45825;45.434;9.116;2024-02-26T00:50:59;6.63;;;3.53;;
59970;SDS011;45825;45.434;9.116;2024-02-26T00:53:24;6.05;;;3.33;;
59970;SDS011;45825;45.434;9.116;2024-02-26T00:55:50;8.35;;;4.10;;
59970;SDS011;45825;45.434;9.116;2024-02-26T00:58:15;6.15;;;3.20;;
59970;SDS011;45825;45.434;9.116;2024-02-26T01:00:41;6.63;;;3.13;;
59970;SDS011;45825;45.434;9.116;2024-02-26T01:03:06;4.90;;;2.80;;
59970;SDS011;45825;45.434;9.116;2024-02-26T01:05:32;5.15;;;2.75;;
59970;SDS011;45825;45.434;9.116;2024-02-26T01:07:57;5.68;;;2.63;;
59970;SDS011;45825;45.434;9.116;2024-02-26T01:10:22;7.72;;;2.97;;
59970;SDS011;45825;45.434;9.116;2024-02-26T01:12:48;4.40;;;2.50;;
59970;SDS011;45825;45.434;9.116;2024-02-26T01:15:13;4.65;;;2.20;;
59970;SDS011;45825;45.434;9.116;2024-02-26T01:17:38;7.20;;;2.40;;
59970;SDS011;45825;45.434;9.116;2024-02-26T01:20:04;3.70;;;2.10;;
59970;SDS011;45825;45.434;9.116;2024-02-26T01:22:30;5.90;;;2.20;;
59970;SDS011;45825;45.434;9.116;2024-02-26T01:24:55;5.10;;;2.20;;
59970;SDS011;45825;45.434;9.116;2024-02-26T01:27:21;6.68;;;2.08;;
59970;SDS011;45825;45.434;9.116;2024-02-26T01:29:51;4.18;;;1.85;;
59970;SDS011;45825;45.434;9.116;2024-02-26T01:32:17;4.18;;;1.88;;
59970;SDS011;45825;45.434;9.116;2024-02-26T01:34:42;3.92;;;1.85;;
59970;SDS011;45825;45.434;9.116;2024-02-26T01:37:07;2.88;;;1.33;;
59970;SDS011;45825;45.434;9.116;2024-02-26T01:39:33;4.45;;;1.90;;
59970;SDS011;45825;45.434;9.116;2024-02-26T01:41:58;4.00;;;1.80;;
59970;SDS011;45825;45.434;9.116;2024-02-26T01:44:24;5.43;;;1.73;;
59970;SDS011;45825;45.434;9.116;2024-02-26T01:46:51;4.32;;;1.73;;
59970;SDS011;45825;45.434;9.116;2024-02-26T01:49:18;2.47;;;1.60;;
59970;SDS011;45825;45.434;9.116;2024-02-26T01:51:43;5.20;;;2.15;;
59970;SDS011;45825;45.434;9.116;2024-02-26T01:54:09;4.32;;;2.10;;
59970;SDS011;45825;45.434;9.116;2024-02-26T01:56:35;5.38;;;1.95;;
59970;SDS011;45825;45.434;9.116;2024-02-26T01:59:02;4.90;;;2.00;;
59970;SDS011;45825;45.434;9.116;2024-02-26T02:01:30;4.05;;;2.00;;
59970;SDS011;45825;45.434;9.116;2024-02-26T02:03:57;6.32;;;2.30;;
59970;SDS011;45825;45.434;9.116;2024-02-26T02:06:24;5.82;;;2.47;;
59970;SDS011;45825;45.434;9.116;2024-02-26T02:08:49;6.03;;;2.53;;
59970;SDS011;45825;45.434;9.116;2024-02-26T02:11:14;5.18;;;2.80;;
59970;SDS011;45825;45.434;9.116;2024-02-26T02:13:40;7.57;;;3.03;;
59970;SDS011;45825;45.434;9.116;2024-02-26T02:16:05;5.75;;;3.05;;
59970;SDS011;45825;45.434;9.116;2024-02-26T02:18:31;8.75;;;3.78;;
59970;SDS011;45825;45.434;9.116;2024-02-26T02:20:57;6.18;;;3.53;;
59970;SDS011;45825;45.434;9.116;2024-02-26T02:23:25;6.55;;;3.47;;
59970;SDS011;45825;45.434;9.116;2024-02-26T02:25:50;6.07;;;3.70;;
59970;SDS011;45825;45.434;9.116;2024-02-26T02:28:16;8.88;;;4.00;;
59970;SDS011;45825;45.434;9.116;2024-02-26T02:30:41;7.35;;;4.40;;
59970;SDS011;45825;45.434;9.116;2024-02-26T02:33:06;7.63;;;4.70;;
59970;SDS011;45825;45.434;9.116;2024-02-26T02:35:32;9.35;;;4.95;;
59970;SDS011;45825;45.434;9.116;2024-02-26T02:37:57;8.68;;;5.10;;
59970;SDS011;45825;45.434;9.116;2024-02-26T02:40:23;10.77;;;4.90;;
59970;SDS011;45825;45.434;9.116;2024-02-26T02:42:48;10.35;;;5.10;;
59970;SDS011;45825;45.434;9.116;2024-02-26T02:45:14;8.90;;;5.38;;
59970;SDS011;45825;45.434;9.116;2024-02-26T02:47:39;7.90;;;5.53;;
59970;SDS011;45825;45.434;9.116;2024-02-26T02:50:04;8.30;;;5.18;;
59970;SDS011;45825;45.434;9.116;2024-02-26T02:52:30;8.02;;;5.10;;
59970;SDS011;45825;45.434;9.116;2024-02-26T02:54:55;8.65;;;5.10;;
59970;SDS011;45825;45.434;9.116;2024-02-26T02:57:21;8.73;;;5.70;;
59970;SDS011;45825;45.434;9.116;2024-02-26T02:59:46;9.40;;;5.35;;
59970;SDS011;45825;45.434;9.116;2024-02-26T03:02:12;7.03;;;4.60;;
59970;SDS011;45825;45.434;9.116;2024-02-26T03:04:37;10.55;;;4.97;;
59970;SDS011;45825;45.434;9.116;2024-02-26T03:07:03;7.72;;;4.70;;
59970;SDS011;45825;45.434;9.116;2024-02-26T03:09:28;8.45;;;4.40;;
59970;SDS011;45825;45.434;9.116;2024-02-26T03:11:53;8.40;;;4.22;;
59970;SDS011;45825;45.434;9.116;2024-02-26T03:14:18;8.20;;;4.18;;
59970;SDS011;45825;45.434;9.116;2024-02-26T03:16:44;7.68;;;4.00;;
59970;SDS011;45825;45.434;9.116;2024-02-26T03:19:09;8.73;;;4.40;;
59970;SDS011;45825;45.434;9.116;2024-02-26T03:21:34;7.00;;;3.75;;
59970;SDS011;45825;45.434;9.116;2024-02-26T03:24:00;6.38;;;3.72;;
59970;SDS011;45825;45.434;9.116;2024-02-26T03:26:25;7.05;;;3.60;;
59970;SDS011;45825;45.434;9.116;2024-02-26T03:28:50;6.10;;;3.58;;
59970;SDS011;45825;45.434;9.116;2024-02-26T03:31:16;7.47;;;3.70;;
59970;SDS011;45825;45.434;9.116;2024-02-26T03:33:41;7.10;;;4.05;;
59970;SDS011;45825;45.434;9.116;2024-02-26T03:36:06;7.03;;;3.85;;
59970;SDS011;45825;45.434;9.116;2024-02-26T03:38:32;6.05;;;3.60;;
59970;SDS011;45825;45.434;9.116;2024-02-26T03:40:58;6.20;;;3.50;;
59970;SDS011;45825;45.434;9.116;2024-02-26T03:43:23;6.22;;;3.60;;
59970;SDS011;45825;45.434;9.116;2024-02-26T03:45:48;6.90;;;3.35;;
59970;SDS011;45825;45.434;9.116;2024-02-26T03:48:14;7.25;;;3.47;;
59970;SDS011;45825;45.434;9.116;2024-02-26T03:50:39;6.32;;;3.80;;
59970;SDS011;45825;45.434;9.116;2024-02-26T03:53:04;5.75;;;3.83;;
59970;SDS011;45825;45.434;9.116;2024-02-26T03:55:30;8.50;;;3.80;;
59970;SDS011;45825;45.434;9.116;2024-02-26T03:57:55;5.85;;;3.47;;
59970;SDS011;45825;45.434;9.116;2024-02-26T04:00:21;6.65;;;3.33;;
59970;SDS011;45825;45.434;9.116;2024-02-26T04:02:46;6.00;;;3.25;;
59970;SDS011;45825;45.434;9.116;2024-02-26T04:05:12;5.82;;;3.17;;
59970;SDS011;45825;45.434;9.116;2024-02-26T04:07:38;6.07;;;3.67;;
59970;SDS011;45825;45.434;9.116;2024-02-26T04:10:08;5.55;;;3.20;;
59970;SDS011;45825;45.434;9.116;2024-02-26T04:12:40;6.93;;;3.33;;
59970;SDS011;45825;45.434;9.116;2024-02-26T04:15:10;6.35;;;3.63;;
59970;SDS011;45825;45.434;9.116;2024-02-26T04:17:36;5.65;;;3.33;;
59970;SDS011;45825;45.434;9.116;2024-02-26T04:20:02;7.45;;;3.50;;
59970;SDS011;45825;45.434;9.116;2024-02-26T04:22:28;6.18;;;3.72;;
59970;SDS011;45825;45.434;9.116;2024-02-26T04:24:54;6.18;;;3.72;;
59970;SDS011;45825;45.434;9.116;2024-02-26T04:27:19;6.60;;;3.67;;
59970;SDS011;45825;45.434;9.116;2024-02-26T04:29:44;5.72;;;3.55;;
59970;SDS011;45825;45.434;9.116;2024-02-26T04:32:10;6.00;;;3.20;;
59970;SDS011;45825;45.434;9.116;2024-02-26T04:34:35;7.95;;;3.70;;
59970;SDS011;45825;45.434;9.116;2024-02-26T04:37:00;5.70;;;3.45;;
59970;SDS011;45825;45.434;9.116;2024-02-26T04:39:25;6.25;;;3.40;;
59970;SDS011;45825;45.434;9.116;2024-02-26T04:41:51;6.70;;;3.45;;
59970;SDS011;45825;45.434;9.116;2024-02-26T04:44:16;5.35;;;3.47;;
59970;SDS011;45825;45.434;9.116;2024-02-26T04:46:41;6.65;;;3.42;;
59970;SDS011;45825;45.434;9.116;2024-02-26T04:49:07;6.30;;;3.50;;
59970;SDS011;45825;45.434;9.116;2024-02-26T04:51:32;7.75;;;3.63;;
59970;SDS011;45825;45.434;9.116;2024-02-26T04:53:57;7.43;;;3.35;;
59970;SDS011;45825;45.434;9.116;2024-02-26T04:56:23;5.80;;;3.33;;
59970;SDS011;45825;45.434;9.116;2024-02-26T04:58:48;6.22;;;3.33;;
59970;SDS011;45825;45.434;9.116;2024-02-26T05:01:14;5.47;;;3.40;;
59970;SDS011;45825;45.434;9.116;2024-02-26T05:03:41;7.15;;;3.60;;
59970;SDS011;45825;45.434;9.116;2024-02-26T05:06:07;7.20;;;3.42;;
59970;SDS011;45825;45.434;9.116;2024-02-26T05:08:34;9.63;;;4.25;;
59970;SDS011;45825;45.434;9.116;2024-02-26T05:11:00;5.45;;;3.50;;
59970;SDS011;45825;45.434;9.116;2024-02-26T05:13:27;6.40;;;3.47;;
59970;SDS011;45825;45.434;9.116;2024-02-26T05:15:53;6.70;;;4.00;;
59970;SDS011;45825;45.434;9.116;2024-02-26T05:18:18;7.78;;;4.20;;
59970;SDS011;45825;45.434;9.116;2024-02-26T05:20:44;6.75;;;3.65;;
59970;SDS011;45825;45.434;9.116;2024-02-26T05:23:09;5.45;;;3.22;;
59970;SDS011;45825;45.434;9.116;2024-02-26T05:25:34;6.35;;;3.35;;
59970;SDS011;45825;45.434;9.116;2024-02-26T05:28:00;5.72;;;3.22;;
59970;SDS011;45825;45.434;9.116;2024-02-26T05:30:25;6.50;;;3.50;;
59970;SDS011;45825;45.434;9.116;2024-02-26T05:32:53;6.22;;;3.60;;
59970;SDS011;45825;45.434;9.116;2024-02-26T05:35:18;6.88;;;3.50;;
59970;SDS011;45825;45.434;9.116;2024-02-26T05:37:43;7.32;;;3.75;;
59970;SDS011;45825;45.434;9.116;2024-02-26T05:40:09;6.43;;;3.70;;
59970;SDS011;45825;45.434;9.116;2024-02-26T05:42:34;6.53;;;3.80;;
59970;SDS011;45825;45.434;9.116;2024-02-26T05:44:59;6.95;;;3.70;;
59970;SDS011;45825;45.434;9.116;2024-02-26T05:47:30;5.93;;;3.80;;
59970;SDS011;45825;45.434;9.116;2024-02-26T05:49:55;7.18;;;3.83;;
59970;SDS011;45825;45.434;9.116;2024-02-26T05:52:23;7.80;;;4.30;;
59970;SDS011;45825;45.434;9.116;2024-02-26T05:54:48;9.40;;;3.60;;
59970;SDS011;45825;45.434;9.116;2024-02-26T05:57:14;6.10;;;3.53;;
59970;SDS011;45825;45.434;9.116;2024-02-26T05:59:39;8.70;;;4.07;;
59970;SDS011;45825;45.434;9.116;2024-02-26T06:02:04;9.70;;;4.53;;
59970;SDS011;45825;45.434;9.116;2024-02-26T06:04:30;7.72;;;4.30;;
59970;SDS011;45825;45.434;9.116;2024-02-26T06:06:55;6.65;;;4.05;;
59970;SDS011;45825;45.434;9.116;2024-02-26T06:09:22;7.57;;;4.30;;
59970;SDS011;45825;45.434;9.116;2024-02-26T06:11:47;6.90;;;4.20;;
59970;SDS011;45825;45.434;9.116;2024-02-26T06:14:13;6.47;;;4.03;;
59970;SDS011;45825;45.434;9.116;2024-02-26T06:16:39;7.53;;;4.55;;
59970;SDS011;45825;45.434;9.116;2024-02-26T06:19:04;9.57;;;4.63;;
59970;SDS011;45825;45.434;9.116;2024-02-26T06:21:30;7.90;;;4.07;;
59970;SDS011;45825;45.434;9.116;2024-02-26T06:23:55;6.13;;;3.97;;
59970;SDS011;45825;45.434;9.116;2024-02-26T06:26:20;9.90;;;4.53;;
59970;SDS011;45825;45.434;9.116;2024-02-26T06:28:45;6.70;;;4.57;;
59970;SDS011;45825;45.434;9.116;2024-02-26T06:31:11;7.25;;;4.13;;
59970;SDS011;45825;45.434;9.116;2024-02-26T06:33:36;7.30;;;4.40;;
59970;SDS011;45825;45.434;9.116;2024-02-26T06:36:01;6.88;;;4.32;;
59970;SDS011;45825;45.434;9.116;2024-02-26T06:38:27;8.57;;;4.40;;
59970;SDS011;45825;45.434;9.116;2024-02-26T06:40:52;7.72;;;4.20;;
59970;SDS011;45825;45.434;9.116;2024-02-26T06:43:18;7.07;;;3.90;;
59970;SDS011;45825;45.434;9.116;2024-02-26T06:45:43;7.70;;;4.57;;
59970;SDS011;45825;45.434;9.116;2024-02-26T06:48:08;10.63;;;4.80;;
59970;SDS011;45825;45.434;9.116;2024-02-26T06:50:34;8.50;;;5.00;;
59970;SDS011;45825;45.434;9.116;2024-02-26T06:52:59;8.70;;;4.25;;
59970;SDS011;45825;45.434;9.116;2024-02-26T06:55:24;8.07;;;4.28;;
59970;SDS011;45825;45.434;9.116;2024-02-26T06:57:49;8.35;;;3.80;;
59970;SDS011;45825;45.434;9.116;2024-02-26T07:00:15;6.75;;;3.95;;
59970;SDS011;45825;45.434;9.116;2024-02-26T07:02:41;7.38;;;3.70;;
59970;SDS011;45825;45.434;9.116;2024-02-26T07:05:10;6.60;;;3.30;;
59970;SDS011;45825;45.434;9.116;2024-02-26T07:07:35;6.32;;;3.92;;
59970;SDS011;45825;45.434;9.116;2024-02-26T07:10:01;6.05;;;3.88;;
59970;SDS011;45825;45.434;9.116;2024-02-26T07:12:29;6.68;;;3.50;;
59970;SDS011;45825;45.434;9.116;2024-02-26T07:14:54;7.57;;;3.65;;
59970;SDS011;45825;45.434;9.116;2024-02-26T07:17:20;6.03;;;3.20;;
59970;SDS011;45825;45.434;9.116;2024-02-26T07:19:45;6.78;;;3.50;;
59970;SDS011;45825;45.434;9.116;2024-02-26T07:22:10;5.50;;;2.97;;
59970;SDS011;45825;45.434;9.116;2024-02-26T07:24:36;4.75;;;3.13;;
59970;SDS011;45825;45.434;9.116;2024-02-26T07:27:01;7.20;;;3.40;;
59970;SDS011;45825;45.434;9.116;2024-02-26T07:29:27;6.40;;;3.88;;
59970;SDS011;45825;45.434;9.116;2024-02-26T07:31:52;5.90;;;3.63;;
59970;SDS011;45825;45.434;9.116;2024-02-26T07:34:17;6.75;;;3.72;;
59970;SDS011;45825;45.434;9.116;2024-02-26T07:36:43;6.88;;;3.97;;
59970;SDS011;45825;45.434;9.116;2024-02-26T07:39:08;7.30;;;3.85;;
59970;SDS011;45825;45.434;9.116;2024-02-26T07:41:33;6.20;;;3.92;;
59970;SDS011;45825;45.434;9.116;2024-02-26T07:43:59;7.18;;;3.95;;
59970;SDS011;45825;45.434;9.116;2024-02-26T07:46:24;7.15;;;3.95;;
59970;SDS011;45825;45.434;9.116;2024-02-26T07:48:49;6.70;;;4.28;;
59970;SDS011;45825;45.434;9.116;2024-02-26T07:51:15;7.28;;;3.80;;
59970;SDS011;45825;45.434;9.116;2024-02-26T07:53:40;11.50;;;5.00;;
59970;SDS011;45825;45.434;9.116;2024-02-26T07:56:05;6.38;;;3.40;;
59970;SDS011;45825;45.434;9.116;2024-02-26T07:58:34;8.00;;;3.60;;
59970;SDS011;45825;45.434;9.116;2024-02-26T08:00:59;7.43;;;4.00;;
59970;SDS011;45825;45.434;9.116;2024-02-26T08:03:25;6.60;;;3.30;;
59970;SDS011;45825;45.434;9.116;2024-02-26T08:05:51;6.32;;;3.55;;
59970;SDS011;45825;45.434;9.116;2024-02-26T08:08:16;6.50;;;3.80;;
59970;SDS011;45825;45.434;9.116;2024-02-26T08:10:42;7.70;;;4.40;;
59970;SDS011;45825;45.434;9.116;2024-02-26T08:13:07;6.63;;;4.22;;
59970;SDS011;45825;45.434;9.116;2024-02-26T08:15:32;8.18;;;4.38;;
59970;SDS011;45825;45.434;9.116;2024-02-26T08:18:02;7.22;;;4.07;;
59970;SDS011;45825;45.434;9.116;2024-02-26T08:20:28;8.55;;;4.60;;
59970;SDS011;45825;45.434;9.116;2024-02-26T08:22:54;7.38;;;4.65;;
59970;SDS011;45825;45.434;9.116;2024-02-26T08:25:20;7.65;;;4.68;;
59970;SDS011;45825;45.434;9.116;2024-02-26T08:27:45;9.18;;;4.68;;
59970;SDS011;45825;45.434;9.116;2024-02-26T08:30:12;7.10;;;4.20;;
59970;SDS011;45825;45.434;9.116;2024-02-26T08:32:41;8.20;;;4.53;;
59970;SDS011;45825;45.434;9.116;2024-02-26T08:35:07;7.63;;;4.28;;
59970;SDS011;45825;45.434;9.116;2024-02-26T08:37:32;10.32;;;4.40;;
59970;SDS011;45825;45.434;9.116;2024-02-26T08:39:58;9.13;;;4.35;;
59970;SDS011;45825;45.434;9.116;2024-02-26T08:42:23;9.93;;;4.97;;
59970;SDS011;45825;45.434;9.116;2024-02-26T08:44:49;7.53;;;4.38;;
59970;SDS011;45825;45.434;9.116;2024-02-26T08:47:14;9.68;;;4.90;;
59970;SDS011;45825;45.434;9.116;2024-02-26T08:49:44;8.25;;;4.88;;
59970;SDS011;45825;45.434;9.116;2024-02-26T08:52:10;8.27;;;4.57;;
59970;SDS011;45825;45.434;9.116;2024-02-26T08:54:35;7.25;;;4.57;;
59970;SDS011;45825;45.434;9.116;2024-02-26T08:57:00;8.93;;;5.32;;
59970;SDS011;45825;45.434;9.116;2024-02-26T08:59:25;8.18;;;4.78;;
59970;SDS011;45825;45.434;9.116;2024-02-26T09:01:51;10.73;;;5.55;;
59970;SDS011;45825;45.434;9.116;2024-02-26T09:04:16;9.25;;;5.25;;
59970;SDS011;45825;45.434;9.116;2024-02-26T09:06:41;9.05;;;4.93;;
59970;SDS011;45825;45.434;9.116;2024-02-26T09:09:07;8.02;;;5.13;;
59970;SDS011;45825;45.434;9.116;2024-02-26T09:11:32;9.77;;;5.15;;
59970;SDS011;45825;45.434;9.116;2024-02-26T09:13:57;10.63;;;5.30;;
59970;SDS011;45825;45.434;9.116;2024-02-26T09:16:22;9.95;;;6.03;;
59970;SDS011;45825;45.434;9.116;2024-02-26T09:18:48;10.73;;;5.32;;
59970;SDS011;45825;45.434;9.116;2024-02-26T09:21:13;9.05;;;5.53;;
59970;SDS011;45825;45.434;9.116;2024-02-26T09:23:39;8.88;;;5.22;;
59970;SDS011;45825;45.434;9.116;2024-02-26T09:26:05;8.63;;;5.07;;
59970;SDS011;45825;45.434;9.116;2024-02-26T09:28:31;8.70;;;5.30;;
59970;SDS011;45825;45.434;9.116;2024-02-26T09:31:02;8.25;;;5.22;;
59970;SDS011;45825;45.434;9.116;2024-02-26T09:33:28;11.30;;;5.50;;
59970;SDS011;45825;45.434;9.116;2024-02-26T09:35:54;9.02;;;5.25;;
59970;SDS011;45825;45.434;9.116;2024-02-26T09:38:19;9.48;;;5.03;;
59970;SDS011;45825;45.434;9.116;2024-02-26T09:40:44;8.35;;;5.20;;
59970;SDS011;45825;45.434;9.116;2024-02-26T09:43:10;8.80;;;5.30;;
59970;SDS011;45825;45.434;9.116;2024-02-26T09:45:40;8.73;;;4.72;;
59970;SDS011;45825;45.434;9.116;2024-02-26T09:48:06;9.48;;;5.10;;
59970;SDS011;45825;45.434;9.116;2024-02-26T09:50:33;8.32;;;4.90;;
59970;SDS011;45825;45.434;9.116;2024-02-26T09:52:59;8.73;;;4.90;;
59970;SDS011;45825;45.434;9.116;2024-02-26T09:55:27;8.57;;;5.07;;
59970;SDS011;45825;45.434;9.116;2024-02-26T09:57:53;8.10;;;4.47;;
59970;SDS011;45825;45.434;9.116;2024-02-26T10:00:19;8.60;;;5.10;;
59970;SDS011;45825;45.434;9.116;2024-02-26T10:02:46;9.45;;;4.80;;
59970;SDS011;45825;45.434;9.116;2024-02-26T10:05:18;9.82;;;4.65;;
59970;SDS011;45825;45.434;9.116;2024-02-26T10:07:44;9.23;;;5.13;;
59970;SDS011;45825;45.434;9.116;2024-02-26T10:10:10;8.05;;;5.00;;
59970;SDS011;45825;45.434;9.116;2024-02-26T10:12:35;8.85;;;5.45;;
59970;SDS011;45825;45.434;9.116;2024-02-26T10:15:01;8.52;;;5.00;;
59970;SDS011;45825;45.434;9.116;2024-02-26T10:17:26;9.60;;;5.45;;
59970;SDS011;45825;45.434;9.116;2024-02-26T10:19:52;8.43;;;5.28;;
59970;SDS011;45825;45.434;9.116;2024-02-26T10:22:21;8.20;;;5.38;;
59970;SDS011;45825;45.434;9.116;2024-02-26T10:24:47;7.53;;;4.97;;
59970;SDS011;45825;45.434;9.116;2024-02-26T10:27:12;7.93;;;4.88;;
59970;SDS011;45825;45.434;9.116;2024-02-26T10:29:37;8.40;;;5.00;;
59970;SDS011;45825;45.434;9.116;2024-02-26T10:32:03;8.23;;;4.80;;
59970;SDS011;45825;45.434;9.116;2024-02-26T10:34:28;9.40;;;4.68;;
59970;SDS011;45825;45.434;9.116;2024-02-26T10:36:54;8.25;;;4.45;;
59970;SDS011;45825;45.434;9.116;2024-02-26T10:39:19;7.88;;;4.60;;
59970;SDS011;45825;45.434;9.116;2024-02-26T10:41:45;10.93;;;6.70;;
59970;SDS011;45825;45.434;9.116;2024-02-26T10:44:10;9.65;;;5.22;;
59970;SDS011;45825;45.434;9.116;2024-02-26T10:46:37;8.23;;;5.03;;
59970;SDS011;45825;45.434;9.116;2024-02-26T10:49:05;9.00;;;4.75;;
59970;SDS011;45825;45.434;9.116;2024-02-26T10:51:37;7.85;;;5.03;;
59970;SDS011;45825;45.434;9.116;2024-02-26T10:54:04;9.07;;;5.20;;
59970;SDS011;45825;45.434;9.116;2024-02-26T10:56:33;7.55;;;4.50;;
59970;SDS011;45825;45.434;9.116;2024-02-26T10:58:59;8.60;;;5.47;;
59970;SDS011;45825;45.434;9.116;2024-02-26T11:01:25;9.50;;;6.18;;
59970;SDS011;45825;45.434;9.116;2024-02-26T11:03:54;11.32;;;6.38;;
59970;SDS011;45825;45.434;9.116;2024-02-26T11:06:21;21.85;;;13.43;;
59970;SDS011;45825;45.434;9.116;2024-02-26T11:08:49;16.40;;;8.10;;
59970;SDS011;45825;45.434;9.116;2024-02-26T11:11:16;10.70;;;6.32;;
59970;SDS011;45825;45.434;9.116;2024-02-26T11:13:42;9.77;;;6.13;;
59970;SDS011;45825;45.434;9.116;2024-02-26T11:16:13;9.88;;;5.35;;
59970;SDS011;45825;45.434;9.116;2024-02-26T11:18:39;9.32;;;5.70;;
59970;SDS011;45825;45.434;9.116;2024-02-26T11:21:07;8.30;;;5.22;;
59970;SDS011;45825;45.434;9.116;2024-02-26T11:23:33;9.15;;;5.57;;
59970;SDS011;45825;45.434;9.116;2024-02-26T11:26:01;9.07;;;5.65;;
59970;SDS011;45825;45.434;9.116;2024-02-26T11:28:29;7.82;;;5.70;;
59970;SDS011;45825;45.434;9.116;2024-02-26T11:30:58;10.75;;;5.80;;
59970;SDS011;45825;45.434;9.116;2024-02-26T11:33:25;11.07;;;6.18;;
59970;SDS011;45825;45.434;9.116;2024-02-26T11:35:53;9.25;;;6.15;;
59970;SDS011;45825;45.434;9.116;2024-02-26T11:38:23;10.25;;;6.50;;
59970;SDS011;45825;45.434;9.116;2024-02-26T11:40:51;11.30;;;6.50;;
59970;SDS011;45825;45.434;9.116;2024-02-26T11:43:18;11.88;;;6.10;;
59970;SDS011;45825;45.434;9.116;2024-02-26T11:45:48;12.48;;;6.60;;
59970;SDS011;45825;45.434;9.116;2024-02-26T11:48:19;11.38;;;6.82;;
59970;SDS011;45825;45.434;9.116;2024-02-26T11:50:46;12.68;;;7.13;;
59970;SDS011;45825;45.434;9.116;2024-02-26T11:53:23;15.57;;;7.07;;
59970;SDS011;45825;45.434;9.116;2024-02-26T11:58:40;9.35;;;6.53;;
59970;SDS011;45825;45.434;9.116;2024-02-26T12:01:06;9.07;;;5.60;;
59970;SDS011;45825;45.434;9.116;2024-02-26T12:03:51;10.52;;;6.00;;
59970;SDS011;45825;45.434;9.116;2024-02-26T12:06:19;10.38;;;6.20;;
59970;SDS011;45825;45.434;9.116;2024-02-26T12:08:46;9.05;;;5.60;;
59970;SDS011;45825;45.434;9.116;2024-02-26T12:11:14;11.30;;;7.70;;
59970;SDS011;45825;45.434;9.116;2024-02-26T12:13:41;11.73;;;5.95;;
59970;SDS011;45825;45.434;9.116;2024-02-26T12:16:07;9.38;;;5.55;;
59970;SDS011;45825;45.434;9.116;2024-02-26T12:18:34;10.50;;;5.55;;
59970;SDS011;45825;45.434;9.116;2024-02-26T12:21:02;8.63;;;5.38;;
59970;SDS011;45825;45.434;9.116;2024-02-26T12:23:29;8.07;;;5.50;;
59970;SDS011;45825;45.434;9.116;2024-02-26T12:26:00;9.93;;;6.47;;
59970;SDS011;45825;45.434;9.116;2024-02-26T12:30:55;12.55;;;7.18;;
59970;SDS011;45825;45.434;9.116;2024-02-26T12:33:20;12.35;;;7.10;;
59970;SDS011;45825;45.434;9.116;2024-02-26T12:35:46;12.23;;;7.97;;
59970;SDS011;45825;45.434;9.116;2024-02-26T12:38:14;13.10;;;7.78;;
59970;SDS011;45825;45.434;9.116;2024-02-26T12:40:39;11.55;;;7.25;;
59970;SDS011;45825;45.434;9.116;2024-02-26T12:43:05;12.60;;;7.85;;
59970;SDS011;45825;45.434;9.116;2024-02-26T12:45:31;12.05;;;8.32;;
59970;SDS011;45825;45.434;9.116;2024-02-26T12:47:57;12.65;;;8.77;;
59970;SDS011;45825;45.434;9.116;2024-02-26T12:50:24;13.15;;;9.30;;
59970;SDS011;45825;45.434;9.116;2024-02-26T12:52:49;13.15;;;9.07;;
59970;SDS011;45825;45.434;9.116;2024-02-26T12:55:17;12.23;;;9.07;;
59970;SDS011;45825;45.434;9.116;2024-02-26T12:57:45;12.68;;;9.02;;
59970;SDS011;45825;45.434;9.116;2024-02-26T13:00:21;12.93;;;8.93;;
59970;SDS011;45825;45.434;9.116;2024-02-26T13:02:50;12.82;;;8.90;;
59970;SDS011;45825;45.434;9.116;2024-02-26T13:05:15;15.68;;;9.85;;
59970;SDS011;45825;45.434;9.116;2024-02-26T13:07:43;13.70;;;9.68;;
59970;SDS011;45825;45.434;9.116;2024-02-26T13:10:12;10.23;;;6.25;;
59970;SDS011;45825;45.434;9.116;2024-02-26T13:12:42;10.38;;;6.95;;
59970;SDS011;45825;45.434;9.116;2024-02-26T13:15:15;10.50;;;6.78;;
59970;SDS011;45825;45.434;9.116;2024-02-26T13:17:41;9.52;;;5.90;;
59970;SDS011;45825;45.434;9.116;2024-02-26T13:20:08;9.32;;;6.00;;
59970;SDS011;45825;45.434;9.116;2024-02-26T13:22:35;10.07;;;6.20;;
59970;SDS011;45825;45.434;9.116;2024-02-26T13:25:00;10.32;;;5.90;;
59970;SDS011;45825;45.434;9.116;2024-02-26T13:27:28;9.30;;;5.68;;
59970;SDS011;45825;45.434;9.116;2024-02-26T13:30:03;8.65;;;4.30;;
59970;SDS011;45825;45.434;9.116;2024-02-26T13:32:36;6.55;;;3.45;;
59970;SDS011;45825;45.434;9.116;2024-02-26T13:37:32;6.50;;;2.85;;
59970;SDS011;45825;45.434;9.116;2024-02-26T13:39:58;7.60;;;3.30;;
59970;SDS011;45825;45.434;9.116;2024-02-26T13:42:23;5.97;;;3.08;;
59970;SDS011;45825;45.434;9.116;2024-02-26T13:44:48;6.25;;;2.80;;
59970;SDS011;45825;45.434;9.116;2024-02-26T13:49:46;6.13;;;2.80;;
59970;SDS011;45825;45.434;9.116;2024-02-26T13:52:11;4.30;;;2.58;;
59970;SDS011;45825;45.434;9.116;2024-02-26T13:54:37;6.15;;;2.97;;
59970;SDS011;45825;45.434;9.116;2024-02-26T13:57:04;5.65;;;2.78;;
59970;SDS011;45825;45.434;9.116;2024-02-26T13:59:29;6.32;;;2.97;;
59970;SDS011;45825;45.434;9.116;2024-02-26T14:01:55;3.58;;;2.28;;
59970;SDS011;45825;45.434;9.116;2024-02-26T14:04:20;5.65;;;2.35;;
59970;SDS011;45825;45.434;9.116;2024-02-26T14:06:45;5.40;;;2.40;;
59970;SDS011;45825;45.434;9.116;2024-02-26T14:09:11;5.57;;;2.03;;
59970;SDS011;45825;45.434;9.116;2024-02-26T14:11:36;5.13;;;2.38;;
59970;SDS011;45825;45.434;9.116;2024-02-26T14:14:02;5.32;;;2.13;;
59970;SDS011;45825;45.434;9.116;2024-02-26T14:16:28;5.03;;;2.30;;
59970;SDS011;45825;45.434;9.116;2024-02-26T14:18:53;3.80;;;2.08;;
59970;SDS011;45825;45.434;9.116;2024-02-26T14:21:18;3.97;;;2.00;;
59970;SDS011;45825;45.434;9.116;2024-02-26T14:23:44;4.63;;;1.92;;
59970;SDS011;45825;45.434;9.116;2024-02-26T14:26:09;5.18;;;2.55;;
59970;SDS011;45825;45.434;9.116;2024-02-26T14:28:35;5.43;;;2.17;;
59970;SDS011;45825;45.434;9.116;2024-02-26T14:31:01;4.10;;;2.42;;
59970;SDS011;45825;45.434;9.116;2024-02-26T14:33:26;5.53;;;2.55;;
59970;SDS011;45825;45.434;9.116;2024-02-26T14:35:51;5.00;;;2.67;;
59970;SDS011;45825;45.434;9.116;2024-02-26T14:38:17;5.53;;;2.78;;
59970;SDS011;45825;45.434;9.116;2024-02-26T14:40:42;4.82;;;2.70;;
59970;SDS011;45825;45.434;9.116;2024-02-26T14:43:07;6.63;;;2.97;;
59970;SDS011;45825;45.434;9.116;2024-02-26T14:45:34;7.30;;;3.28;;
59970;SDS011;45825;45.434;9.116;2024-02-26T14:48:00;4.93;;;2.60;;
59970;SDS011;45825;45.434;9.116;2024-02-26T14:50:25;5.40;;;3.17;;